createdAt,value
2023-05-20T00:01:44.315Z,10.30
2023-05-20T00:04:12.476Z,10.30
2023-05-20T00:06:42.097Z,10.30
2023-05-20T00:09:09.999Z,10.30
2023-05-20T00:11:38.095Z,10.30
2023-05-20T00:14:06.344Z,10.30
2023-05-20T00:16:34.307Z,10.30
2023-05-20T00:19:02.295Z,10.30
2023-05-20T00:21:31.187Z,10.30
2023-05-20T00:24:00.997Z,10.20
2023-05-20T00:26:29.880Z,10.20
2023-05-20T00:28:58.973Z,10.20
2023-05-20T00:31:26.911Z,10.10
2023-05-20T00:33:54.846Z,10.00
2023-05-20T00:36:22.752Z,10.00
2023-05-20T00:38:50.862Z,10.00
2023-05-20T00:41:21.551Z,10.00
2023-05-20T00:43:49.479Z,9.90
2023-05-20T00:46:17.699Z,9.80
2023-05-20T00:48:45.952Z,9.80
2023-05-20T00:51:15.399Z,9.80
2023-05-20T00:53:44.604Z,9.70
2023-05-20T00:56:13.273Z,9.70
2023-05-20T00:58:42.711Z,9.70
2023-05-20T01:01:10.981Z,9.70
2023-05-20T01:03:39.764Z,9.70
2023-05-20T01:06:07.936Z,9.70
2023-05-20T01:08:36.174Z,9.70
2023-05-20T01:11:07.768Z,9.70
2023-05-20T01:13:41.819Z,9.80
2023-05-20T01:16:12.302Z,9.80
2023-05-20T01:18:42.071Z,9.80
2023-05-20T01:21:13.164Z,9.80
2023-05-20T01:23:43.214Z,9.80
2023-05-20T01:26:13.818Z,9.80
2023-05-20T01:28:44.572Z,9.80
2023-05-20T01:31:15.992Z,9.80
2023-05-20T01:33:44.876Z,9.80
2023-05-20T01:36:13.542Z,9.90
2023-05-20T01:38:43.579Z,9.90
2023-05-20T01:41:13.184Z,9.90
2023-05-20T01:43:42.000Z,9.80
2023-05-20T01:46:10.052Z,9.80
2023-05-20T01:48:38.532Z,9.80
2023-05-20T01:51:06.649Z,9.80
2023-05-20T01:53:34.603Z,9.90
2023-05-20T01:56:06.736Z,9.90
2023-05-20T01:58:35.832Z,9.80
2023-05-20T02:01:04.315Z,9.70
2023-05-20T02:03:32.287Z,9.70
2023-05-20T02:06:00.872Z,9.70
2023-05-20T02:08:28.844Z,9.70
2023-05-20T02:10:56.743Z,9.70
2023-05-20T02:13:26.072Z,9.70
2023-05-20T02:15:54.100Z,9.70
2023-05-20T02:18:22.475Z,9.60
2023-05-20T02:20:50.501Z,9.50
2023-05-20T02:23:18.384Z,9.50
2023-05-20T02:25:46.963Z,9.40
2023-05-20T02:28:16.675Z,9.30
2023-05-20T02:30:46.270Z,9.20
2023-05-20T02:33:14.901Z,9.20
2023-05-20T02:35:43.126Z,9.10
2023-05-20T02:38:11.854Z,9.10
2023-05-20T02:40:39.960Z,9.10
2023-05-20T02:43:07.840Z,9.10
2023-05-20T02:45:36.671Z,9.00
2023-05-20T02:48:06.430Z,9.10
2023-05-20T02:50:34.438Z,9.10
2023-05-20T02:53:02.501Z,9.10
2023-05-20T02:55:30.653Z,9.10
2023-05-20T02:57:58.874Z,9.20
2023-05-20T03:00:28.758Z,9.20
2023-05-20T03:02:56.706Z,9.20
2023-05-20T03:05:27.522Z,9.20
2023-05-20T03:07:55.602Z,9.30
2023-05-20T03:10:23.864Z,9.20
2023-05-20T03:12:52.082Z,9.20
2023-05-20T03:15:19.997Z,9.20
2023-05-20T03:17:47.992Z,9.20
2023-05-20T03:20:16.727Z,9.10
2023-05-20T03:22:46.060Z,9.10
2023-05-20T03:25:14.891Z,9.10
2023-05-20T03:27:44.739Z,9.00
2023-05-20T03:30:13.494Z,9.00
2023-05-20T03:32:42.009Z,9.00
2023-05-20T03:35:10.395Z,9.00
2023-05-20T03:37:39.831Z,9.00
2023-05-20T03:40:11.405Z,9.00
2023-05-20T03:42:40.769Z,9.00
2023-05-20T03:45:09.694Z,9.10
2023-05-20T03:47:44.674Z,9.10
2023-05-20T03:50:12.872Z,9.20
2023-05-20T03:52:41.021Z,9.40
2023-05-20T03:55:11.413Z,9.60
2023-05-20T03:57:39.856Z,9.70
2023-05-20T04:00:11.320Z,9.80
2023-05-20T04:02:44.702Z,9.90
2023-05-20T04:05:15.867Z,9.90
2023-05-20T04:07:43.863Z,10.00
2023-05-20T04:10:15.072Z,10.10
2023-05-20T04:12:43.550Z,10.10
2023-05-20T04:15:12.817Z,10.20
2023-05-20T04:17:50.639Z,10.30
2023-05-20T04:20:20.016Z,10.30
2023-05-20T04:22:48.304Z,10.30
2023-05-20T04:25:18.200Z,10.30
2023-05-20T04:27:46.542Z,10.40
2023-05-20T04:30:16.806Z,10.50
2023-05-20T04:32:45.408Z,10.50
2023-05-20T04:35:14.135Z,10.60
2023-05-20T04:37:47.920Z,10.60
2023-05-20T04:40:19.155Z,10.70
2023-05-20T04:42:47.518Z,10.80
2023-05-20T04:45:16.348Z,10.90
2023-05-20T04:47:44.541Z,11.10
2023-05-20T04:50:13.474Z,11.10
2023-05-20T04:52:43.265Z,11.20
2023-05-20T04:55:12.788Z,11.10
2023-05-20T04:57:42.824Z,11.40
2023-05-20T05:00:13.327Z,11.30
2023-05-20T05:02:42.222Z,11.40
2023-05-20T05:05:10.859Z,11.60
2023-05-20T05:07:39.923Z,11.70
2023-05-20T05:10:09.015Z,11.90
2023-05-20T05:12:36.968Z,11.70
2023-05-20T05:15:07.970Z,11.90
2023-05-20T05:17:35.937Z,12.10
2023-05-20T05:20:03.875Z,12.30
2023-05-20T05:22:36.850Z,12.70
2023-05-20T05:25:05.258Z,13.00
2023-05-20T05:27:33.242Z,13.10
2023-05-20T05:30:02.797Z,13.00
2023-05-20T05:32:32.411Z,12.80
2023-05-20T05:35:00.493Z,13.10
2023-05-20T05:37:29.895Z,13.00
2023-05-20T05:39:57.808Z,12.90
2023-05-20T05:42:26.598Z,12.90
2023-05-20T05:44:55.875Z,13.00
2023-05-20T05:47:29.669Z,13.20
2023-05-20T05:49:59.183Z,13.30
2023-05-20T05:52:28.244Z,13.70
2023-05-20T05:54:56.347Z,13.90
2023-05-20T05:57:24.462Z,13.70
2023-05-20T05:59:52.602Z,13.40
2023-05-20T06:02:20.692Z,13.10
2023-05-20T06:04:49.391Z,12.90
2023-05-20T06:07:19.645Z,12.70
2023-05-20T06:09:47.624Z,12.60
2023-05-20T06:12:15.612Z,12.40
2023-05-20T06:14:43.581Z,12.00
2023-05-20T06:17:11.652Z,12.00
2023-05-20T06:19:39.805Z,11.90
2023-05-20T06:22:07.817Z,12.20
2023-05-20T06:24:37.306Z,12.30
2023-05-20T06:27:05.672Z,12.40
2023-05-20T06:29:33.661Z,12.30
2023-05-20T06:32:01.514Z,12.40
2023-05-20T06:34:30.246Z,12.60
2023-05-20T06:36:58.219Z,12.70
2023-05-20T06:39:26.240Z,13.10
2023-05-20T06:41:55.568Z,13.20
2023-05-20T06:44:36.762Z,13.50
2023-05-20T06:47:22.822Z,13.90
2023-05-20T06:49:52.627Z,14.20
2023-05-20T06:52:20.792Z,14.70
2023-05-20T06:54:48.928Z,14.90
2023-05-20T06:57:18.319Z,15.40
2023-05-20T06:59:46.512Z,16.00
2023-05-20T07:02:15.688Z,16.50
2023-05-20T07:04:44.331Z,16.40
2023-05-20T07:07:12.287Z,16.10
2023-05-20T07:09:40.601Z,16.40
2023-05-20T07:12:09.498Z,16.40
2023-05-20T07:14:39.151Z,16.20
2023-05-20T07:17:07.491Z,15.90
2023-05-20T07:19:35.523Z,16.10
2023-05-20T07:22:03.602Z,16.90
2023-05-20T07:24:57.441Z,17.50
2023-05-20T07:27:25.554Z,19.10
2023-05-20T07:29:54.968Z,19.90
2023-05-20T07:32:23.088Z,20.70
2023-05-20T07:34:52.040Z,20.90
2023-05-20T07:37:20.532Z,22.00
2023-05-20T07:39:48.513Z,21.20
2023-05-20T07:42:16.598Z,21.70
2023-05-20T07:44:48.201Z,20.90
2023-05-20T07:47:17.584Z,20.80
2023-05-20T07:49:46.848Z,20.70
2023-05-20T07:52:14.846Z,20.60
2023-05-20T07:54:43.468Z,19.50
2023-05-20T07:57:12.405Z,18.90
2023-05-20T07:59:42.431Z,17.50
2023-05-20T08:02:10.614Z,17.70
2023-05-20T08:04:40.747Z,18.00
2023-05-20T08:07:08.876Z,17.90
2023-05-20T08:09:48.489Z,17.70
2023-05-20T08:12:16.838Z,17.60
2023-05-20T08:14:45.129Z,17.40
2023-05-20T08:17:13.578Z,17.30
2023-05-20T08:19:42.929Z,17.20
2023-05-20T08:22:10.935Z,17.80
2023-05-20T08:24:38.903Z,19.40
2023-05-20T08:27:07.501Z,21.70
2023-05-20T08:29:36.218Z,22.30
2023-05-20T08:32:05.595Z,23.20
2023-05-20T08:34:35.324Z,24.60
2023-05-20T08:37:04.798Z,24.00
2023-05-20T08:39:32.759Z,22.00
2023-05-20T08:42:01.308Z,20.80
2023-05-20T08:44:30.450Z,19.30
2023-05-20T08:46:59.468Z,18.90
2023-05-20T08:49:27.892Z,18.70
2023-05-20T08:51:56.091Z,18.40
2023-05-20T08:54:27.461Z,18.60
2023-05-20T08:56:56.001Z,19.00
2023-05-20T08:59:24.278Z,19.30
2023-05-20T09:01:52.483Z,19.50
2023-05-20T09:04:20.513Z,20.60
2023-05-20T09:06:48.962Z,22.00
2023-05-20T09:09:17.337Z,21.50
2023-05-20T09:11:46.603Z,21.40
2023-05-20T09:14:14.606Z,20.30
2023-05-20T09:16:42.557Z,19.80
2023-05-20T09:19:11.922Z,19.10
2023-05-20T09:21:42.988Z,18.80
2023-05-20T09:24:10.989Z,18.80
2023-05-20T09:26:38.856Z,18.50
2023-05-20T09:29:08.846Z,18.40
2023-05-20T09:31:38.911Z,19.30
2023-05-20T09:34:08.100Z,19.70
2023-05-20T09:36:37.056Z,19.90
2023-05-20T09:39:05.950Z,19.90
2023-05-20T09:41:37.084Z,19.90
2023-05-20T09:44:06.753Z,20.60
2023-05-20T09:46:37.173Z,20.20
2023-05-20T09:49:06.787Z,19.80
2023-05-20T09:51:36.274Z,20.90
2023-05-20T09:54:07.221Z,21.60
2023-05-20T09:56:36.014Z,20.70
2023-05-20T09:59:06.475Z,21.30
2023-05-20T10:01:36.147Z,21.10
2023-05-20T10:04:08.131Z,21.80
2023-05-20T10:06:56.093Z,21.20
2023-05-20T10:09:40.100Z,21.40
2023-05-20T10:14:51.615Z,22.60
2023-05-20T10:17:29.584Z,22.50
2023-05-20T10:20:01.661Z,22.90
2023-05-20T10:22:31.561Z,22.90
2023-05-20T10:25:01.268Z,22.20
2023-05-20T10:27:29.304Z,21.60
2023-05-20T10:29:58.368Z,21.10
2023-05-20T10:32:29.305Z,20.70
2023-05-20T10:35:01.567Z,20.30
2023-05-20T10:37:31.948Z,20.00
2023-05-20T10:40:12.245Z,20.00
2023-05-20T10:42:40.937Z,20.00
2023-05-20T10:45:10.051Z,20.00
2023-05-20T10:47:54.982Z,19.90
2023-05-20T10:50:30.102Z,19.70
2023-05-20T10:53:05.352Z,19.70
2023-05-20T10:55:39.422Z,19.40
2023-05-20T10:58:08.612Z,19.40
2023-05-20T11:00:38.482Z,19.50
2023-05-20T11:03:08.512Z,19.50
2023-05-20T11:05:37.451Z,19.70
2023-05-20T11:08:20.656Z,19.70
2023-05-20T11:10:58.284Z,19.50
2023-05-20T11:13:27.363Z,19.40
2023-05-20T11:15:55.651Z,19.40
2023-05-20T11:18:25.205Z,19.40
2023-05-20T11:20:54.461Z,19.50
2023-05-20T11:23:23.420Z,19.70
2023-05-20T11:25:53.229Z,19.60
2023-05-20T11:28:21.963Z,19.80
2023-05-20T11:30:50.520Z,19.90
2023-05-20T11:33:19.665Z,20.20
2023-05-20T11:35:52.820Z,20.30
2023-05-20T11:38:21.934Z,20.30
2023-05-20T11:40:54.216Z,20.30
2023-05-20T11:43:24.090Z,20.30
2023-05-20T11:45:55.617Z,20.40
2023-05-20T11:48:24.774Z,20.80
2023-05-20T11:50:55.868Z,20.90
2023-05-20T11:53:25.337Z,21.50
2023-05-20T11:55:55.930Z,21.70
2023-05-20T11:58:24.904Z,21.70
2023-05-20T12:00:59.476Z,21.60
2023-05-20T12:03:30.293Z,21.40
2023-05-20T12:06:02.469Z,21.60
2023-05-20T12:08:39.443Z,22.30
2023-05-20T12:11:07.428Z,22.80
2023-05-20T12:13:35.861Z,22.90
2023-05-20T12:16:05.809Z,22.60
2023-05-20T12:18:34.043Z,22.30
2023-05-20T12:21:03.925Z,22.30
2023-05-20T12:23:34.265Z,22.40
2023-05-20T12:26:02.423Z,22.50
2023-05-20T12:28:30.419Z,22.60
2023-05-20T12:30:58.378Z,22.70
2023-05-20T12:33:27.637Z,22.70
2023-05-20T12:35:55.635Z,22.50
2023-05-20T12:38:24.912Z,22.20
2023-05-20T12:40:52.825Z,22.30
2023-05-20T12:43:20.829Z,22.40
2023-05-20T12:45:48.776Z,22.10
2023-05-20T12:48:16.798Z,22.10
2023-05-20T12:50:44.824Z,22.20
2023-05-20T12:53:12.891Z,22.10
2023-05-20T12:55:42.157Z,22.20
2023-05-20T12:58:10.079Z,22.60
2023-05-20T13:00:38.035Z,22.60
2023-05-20T13:03:06.197Z,22.80
2023-05-20T13:05:34.177Z,22.90
2023-05-20T13:08:02.066Z,23.10
2023-05-20T13:10:29.988Z,23.10
2023-05-20T13:12:59.617Z,23.10
2023-05-20T13:15:27.545Z,22.50
2023-05-20T13:17:56.342Z,22.00
2023-05-20T13:20:24.356Z,21.80
2023-05-20T13:22:52.548Z,22.10
2023-05-20T13:25:20.665Z,22.70
2023-05-20T13:27:48.710Z,23.20
2023-05-20T13:30:18.192Z,23.50
2023-05-20T13:32:46.282Z,23.60
2023-05-20T13:35:14.779Z,23.40
2023-05-20T13:37:42.767Z,23.20
2023-05-20T13:40:11.701Z,23.10
2023-05-20T13:42:39.792Z,23.10
2023-05-20T13:45:08.935Z,23.20
2023-05-20T13:47:38.376Z,23.30
2023-05-20T13:50:07.741Z,23.10
2023-05-20T13:52:35.879Z,23.00
2023-05-20T13:55:03.914Z,23.00
2023-05-20T13:57:31.852Z,23.20
2023-05-20T13:59:59.740Z,23.20
2023-05-20T14:02:27.818Z,23.30
2023-05-20T14:04:57.200Z,22.90
2023-05-20T14:07:25.122Z,22.70
2023-05-20T14:09:53.126Z,22.30
2023-05-20T14:12:22.949Z,22.10
2023-05-20T14:14:51.064Z,21.90
2023-05-20T14:17:19.281Z,21.50
2023-05-20T14:19:47.201Z,21.50
2023-05-20T14:22:16.548Z,21.40
2023-05-20T14:24:44.445Z,21.30
2023-05-20T14:27:14.090Z,21.50
2023-05-20T14:29:42.142Z,21.60
2023-05-20T14:32:11.556Z,21.50
2023-05-20T14:34:39.475Z,21.40
2023-05-20T14:37:09.940Z,21.60
2023-05-20T14:39:39.468Z,21.50
2023-05-20T14:42:07.421Z,21.30
2023-05-20T14:44:35.426Z,21.30
2023-05-20T14:47:04.642Z,21.20
2023-05-20T14:49:32.734Z,21.40
2023-05-20T14:52:00.670Z,21.40
2023-05-20T14:54:28.592Z,21.40
2023-05-20T14:56:58.124Z,21.40
2023-05-20T14:59:26.269Z,21.40
2023-05-20T15:01:54.344Z,21.30
2023-05-20T15:04:22.221Z,21.40
2023-05-20T15:06:50.644Z,21.30
2023-05-20T15:09:18.693Z,21.00
2023-05-20T15:11:47.973Z,20.80
2023-05-20T15:14:17.303Z,20.60
2023-05-20T15:16:46.073Z,20.60
2023-05-20T15:19:15.089Z,20.50
2023-05-20T15:21:43.383Z,20.40
2023-05-20T15:24:11.797Z,20.40
2023-05-20T15:26:41.301Z,20.60
2023-05-20T15:29:09.203Z,20.60
2023-05-20T15:31:38.532Z,20.60
2023-05-20T15:34:06.703Z,20.60
2023-05-20T15:36:34.680Z,20.60
2023-05-20T15:39:02.611Z,20.70
2023-05-20T15:41:33.001Z,21.00
2023-05-20T15:44:02.053Z,21.20
2023-05-20T15:46:30.182Z,21.00
2023-05-20T15:48:59.765Z,21.20
2023-05-20T15:51:27.641Z,20.90
2023-05-20T15:53:55.694Z,20.80
2023-05-20T15:56:23.927Z,21.00
2023-05-20T15:58:51.877Z,20.80
2023-05-20T16:01:19.762Z,20.80
2023-05-20T16:03:47.842Z,20.60
2023-05-20T16:06:17.587Z,20.10
2023-05-20T16:08:46.351Z,19.70
2023-05-20T16:11:14.849Z,19.50
2023-05-20T16:13:43.778Z,19.50
2023-05-20T16:16:13.430Z,19.50
2023-05-20T16:18:41.489Z,19.50
2023-05-20T16:21:09.379Z,19.50
2023-05-20T16:23:38.592Z,19.40
2023-05-20T16:26:06.553Z,19.50
2023-05-20T16:28:34.415Z,19.40
2023-05-20T16:31:02.291Z,19.40
2023-05-20T16:33:30.454Z,19.20
2023-05-20T16:35:58.488Z,19.10
2023-05-20T16:38:26.345Z,19.20
2023-05-20T16:40:55.649Z,19.30
2023-05-20T16:43:23.553Z,19.30
2023-05-20T16:45:51.648Z,19.30
2023-05-20T16:48:19.598Z,19.30
2023-05-20T16:50:47.540Z,19.40
2023-05-20T16:53:16.595Z,19.50
2023-05-20T16:55:44.656Z,19.40
2023-05-20T16:58:14.015Z,19.30
2023-05-20T17:00:42.057Z,19.20
2023-05-20T17:03:09.980Z,19.20
2023-05-20T17:05:37.916Z,19.10
2023-05-20T17:08:06.245Z,18.90
2023-05-20T17:10:34.247Z,18.90
2023-05-20T17:13:02.333Z,18.90
2023-05-20T17:15:32.758Z,18.90
2023-05-20T17:18:01.242Z,18.80
2023-05-20T17:20:29.185Z,18.80
2023-05-20T17:22:57.118Z,18.70
2023-05-20T17:25:25.119Z,18.80
2023-05-20T17:27:53.068Z,18.70
2023-05-20T17:30:21.233Z,18.70
2023-05-20T17:32:53.723Z,18.70
2023-05-20T17:35:25.573Z,18.70
2023-05-20T17:37:53.803Z,18.60
2023-05-20T17:40:22.144Z,18.70
2023-05-20T17:42:50.048Z,18.60
2023-05-20T17:45:18.167Z,18.70
2023-05-20T17:47:46.178Z,18.60
2023-05-20T17:50:16.599Z,18.50
2023-05-20T17:52:44.536Z,18.50
2023-05-20T17:55:12.957Z,18.40
2023-05-20T17:57:40.901Z,18.30
2023-05-20T18:00:10.196Z,18.30
2023-05-20T18:02:38.851Z,18.30
2023-05-20T18:05:07.734Z,18.30
2023-05-20T18:07:37.390Z,18.10
2023-05-20T18:10:06.281Z,18.10
2023-05-20T18:12:34.152Z,18.10
2023-05-20T18:15:02.259Z,18.10
2023-05-20T18:17:30.211Z,18.00
2023-05-20T18:19:58.321Z,17.90
2023-05-20T18:22:27.047Z,17.90
2023-05-20T18:24:56.313Z,17.90
2023-05-20T18:27:24.340Z,17.90
2023-05-20T18:29:52.216Z,17.70
2023-05-20T18:32:22.196Z,17.70
2023-05-20T18:34:50.040Z,17.70
2023-05-20T18:37:17.970Z,17.60
2023-05-20T18:39:45.964Z,17.50
2023-05-20T18:42:15.794Z,17.50
2023-05-20T18:44:43.695Z,17.40
2023-05-20T18:47:11.816Z,17.30
2023-05-20T18:49:39.665Z,17.10
2023-05-20T18:52:08.330Z,17.00
2023-05-20T18:54:36.427Z,16.90
2023-05-20T18:57:05.204Z,16.90
2023-05-20T18:59:34.707Z,16.70
2023-05-20T19:02:02.617Z,16.60
2023-05-20T19:04:30.868Z,16.40
2023-05-20T19:06:59.139Z,16.30
2023-05-20T19:09:27.031Z,16.20
2023-05-20T19:11:58.899Z,16.20
2023-05-20T19:14:26.864Z,16.10
2023-05-20T19:16:56.412Z,16.00
2023-05-20T19:19:24.311Z,15.90
2023-05-20T19:21:52.329Z,15.80
2023-05-20T19:24:20.377Z,15.70
2023-05-20T19:26:48.275Z,15.70
2023-05-20T19:29:16.430Z,15.60
2023-05-20T19:31:44.737Z,15.60
2023-05-20T19:34:13.952Z,15.50
2023-05-20T19:36:42.889Z,15.50
2023-05-20T19:39:11.168Z,15.40
2023-05-20T19:41:39.463Z,15.30
2023-05-20T19:44:08.467Z,15.20
2023-05-20T19:46:37.455Z,15.10
2023-05-20T19:49:06.167Z,15.00
2023-05-20T19:51:35.355Z,14.80
2023-05-20T19:54:03.250Z,14.70
2023-05-20T19:56:31.180Z,14.70
2023-05-20T19:59:01.718Z,14.60
2023-05-20T20:01:29.850Z,14.50
2023-05-20T20:03:57.822Z,14.40
2023-05-20T20:06:26.035Z,14.20
2023-05-20T20:08:55.233Z,14.10
2023-05-20T20:11:23.716Z,14.00
2023-05-20T20:13:51.590Z,14.00
2023-05-20T20:16:19.500Z,13.80
2023-05-20T20:18:47.580Z,13.80
2023-05-20T20:21:15.701Z,13.80
2023-05-20T20:23:43.697Z,13.80
2023-05-20T20:26:13.836Z,13.80
2023-05-20T20:28:41.795Z,13.70
2023-05-20T20:31:09.694Z,13.60
2023-05-20T20:33:37.624Z,13.50
2023-05-20T20:36:06.162Z,13.40
2023-05-20T20:38:34.074Z,13.30
2023-05-20T20:41:03.810Z,13.20
2023-05-20T20:43:34.758Z,13.10
2023-05-20T20:46:02.829Z,13.00
2023-05-20T20:48:30.681Z,12.90
2023-05-20T20:50:59.100Z,12.80
2023-05-20T20:53:27.054Z,12.90
2023-05-20T20:55:56.954Z,12.90
2023-05-20T20:58:24.893Z,12.90
2023-05-20T21:00:54.184Z,12.90
2023-05-20T21:03:24.130Z,12.90
2023-05-20T21:05:52.038Z,12.80
2023-05-20T21:08:22.185Z,12.80
2023-05-20T21:10:50.077Z,12.80
2023-05-20T21:13:17.987Z,12.70
2023-05-20T21:15:46.488Z,12.70
2023-05-20T21:18:21.578Z,12.70
2023-05-20T21:20:49.692Z,12.80
2023-05-20T21:23:17.643Z,13.00
2023-05-20T21:25:45.842Z,13.00
2023-05-20T21:28:14.363Z,13.10
2023-05-20T21:30:42.401Z,13.10
2023-05-20T21:33:10.306Z,13.20
2023-05-20T21:35:39.877Z,13.30
2023-05-20T21:38:07.935Z,13.40
2023-05-20T21:40:35.935Z,13.50
2023-05-20T21:43:03.862Z,13.70
2023-05-20T21:45:31.816Z,13.90
2023-05-20T21:47:59.715Z,14.10
2023-05-20T21:50:27.701Z,14.30
2023-05-20T21:52:56.952Z,14.40
2023-05-20T21:55:24.955Z,14.40
2023-05-20T21:57:52.814Z,14.60
2023-05-20T22:00:20.774Z,14.80
2023-05-20T22:02:49.047Z,14.80
2023-05-20T22:05:17.461Z,14.80
2023-05-20T22:07:45.353Z,14.90
2023-05-20T22:10:17.401Z,14.90
2023-05-20T22:12:45.783Z,14.90
2023-05-20T22:15:14.094Z,14.80
2023-05-20T22:17:42.297Z,14.90
2023-05-20T22:20:11.608Z,14.90
2023-05-20T22:22:40.071Z,14.90
2023-05-20T22:25:08.904Z,14.90
2023-05-20T22:27:38.675Z,15.00
2023-05-20T22:30:08.488Z,15.00
2023-05-20T22:32:36.807Z,14.90
2023-05-20T22:35:05.150Z,14.90
2023-05-20T22:37:33.518Z,14.90
2023-05-20T22:40:01.499Z,14.90
2023-05-20T22:42:29.361Z,14.90
2023-05-20T22:44:58.609Z,14.80
2023-05-20T22:47:26.517Z,14.80
2023-05-20T22:49:54.788Z,14.80
2023-05-20T22:52:25.389Z,14.80
2023-05-20T22:54:53.340Z,14.80
2023-05-20T22:57:21.261Z,14.70
2023-05-20T22:59:49.228Z,14.70
2023-05-20T23:02:18.546Z,14.70
2023-05-20T23:04:46.568Z,14.70
2023-05-20T23:07:16.162Z,14.60
2023-05-20T23:09:44.105Z,14.70
2023-05-20T23:12:11.979Z,14.70
2023-05-20T23:14:39.936Z,14.70
2023-05-20T23:17:08.131Z,14.70
2023-05-20T23:19:37.445Z,14.70
2023-05-20T23:22:05.577Z,14.70
2023-05-20T23:24:33.455Z,14.70
2023-05-20T23:27:01.454Z,14.70
2023-05-20T23:29:29.343Z,14.70
2023-05-20T23:31:57.231Z,14.70
2023-05-20T23:34:25.168Z,14.70
2023-05-20T23:36:54.717Z,14.60
2023-05-20T23:39:22.673Z,14.60
2023-05-20T23:41:50.651Z,14.60
2023-05-20T23:44:18.587Z,14.60
2023-05-20T23:46:46.412Z,14.60
2023-05-20T23:49:14.294Z,14.60
2023-05-20T23:51:42.176Z,14.60
2023-05-20T23:54:14.682Z,14.60
2023-05-20T23:56:42.722Z,14.70
2023-05-20T23:59:10.645Z,14.60
